Time;durP1;ratioP1;P1;durP2;ratioP2;P2;SDS_P1;SDS_P2;PMS_P1;PMS_P2;Temp;Humidity;BMP_temperature;BMP_pressure;BME280_temperature;BME280_humidity;BME280_pressure;Samples;Min_cycle;Max_cycle;Signal;HPM_P1;HPM_P2
2021/04/18 00:01:35;;;;;;;0.20;0.20;;;;;;;;;;5099726;28;20214;-69
2021/04/18 00:04:01;;;;;;;0.20;0.20;;;;;;;;;;5100787;28;20206;-69
2021/04/18 00:06:27;;;;;;;0.20;0.20;;;;;;;;;;5089975;28;20245;-68
2021/04/18 00:08:53;;;;;;;0.10;0.10;;;;;;;;;;5087095;28;20210;-69
2021/04/18 00:11:19;;;;;;;0.20;0.20;;;;;;;;;;5100243;28;20267;-68
2021/04/18 00:13:45;;;;;;;0.20;0.20;;;;;;;;;;5102949;28;20205;-69
2021/04/18 00:16:11;;;;;;;0.20;0.20;;;;;;;;;;5091964;28;20272;-70
2021/04/18 00:18:37;;;;;;;0.10;0.10;;;;;;;;;;5104966;28;20520;-70
2021/04/18 00:21:02;;;;;;;0.10;0.10;;;;;;;;;;5106376;28;20205;-69
2021/04/18 00:23:29;;;;;;;0.20;0.20;;;;;;;;;;5100025;28;20230;-67
2021/04/18 00:25:55;;;;;;;0.10;0.10;;;;;;;;;;5096305;28;20218;-70
2021/04/18 00:28:20;;;;;;;0.20;0.20;;;;;;;;;;5100216;28;20225;-69
2021/04/18 00:30:46;;;;;;;0.10;0.10;;;;;;;;;;5085710;28;20217;-69
2021/04/18 00:33:12;;;;;;;0.20;0.20;;;;;;;;;;5090089;28;20216;-69
2021/04/18 00:35:38;;;;;;;0.10;0.10;;;;;;;;;;5085446;28;20207;-68
2021/04/18 00:38:04;;;;;;;0.10;0.10;;;;;;;;;;5099098;28;20206;-69
2021/04/18 00:40:31;;;;;;;0.13;0.13;;;;;;;;;;5085413;28;20273;-69
2021/04/18 00:42:57;;;;;;;0.10;0.10;;;;;;;;;;5095899;28;20217;-68
2021/04/18 00:45:23;;;;;;;0.20;0.20;;;;;;;;;;5088939;28;20230;-68
2021/04/18 00:47:50;;;;;;;0.20;0.20;;;;;;;;;;5088683;28;20238;-69
2021/04/18 00:50:19;;;;;;;0.10;0.10;;;;;;;;;;5085405;28;20245;-68
2021/04/18 00:52:45;;;;;;;0.20;0.20;;;;;;;;;;5090960;28;20209;-68
2021/04/18 00:55:11;;;;;;;0.17;0.17;;;;;;;;;;5105567;28;20454;-69
2021/04/18 00:57:38;;;;;;;0.20;0.20;;;;;;;;;;5087111;28;20389;-68
2021/04/18 01:00:05;;;;;;;0.10;0.10;;;;;;;;;;5097511;28;20210;-69
2021/04/18 01:02:30;;;;;;;0.13;0.13;;;;;;;;;;5092389;28;20211;-69
2021/04/18 01:04:56;;;;;;;0.10;0.10;;;;;;;;;;5099054;28;20272;-70
2021/04/18 01:07:22;;;;;;;0.10;0.10;;;;;;;;;;5098741;28;20249;-69
2021/04/18 01:09:48;;;;;;;0.10;0.10;;;;;;;;;;5090748;28;20505;-69
2021/04/18 01:12:14;;;;;;;0.20;0.20;;;;;;;;;;5099335;28;20207;-68
2021/04/18 01:14:41;;;;;;;0.20;0.20;;;;;;;;;;5085082;28;20502;-69
2021/04/18 01:17:06;;;;;;;0.10;0.10;;;;;;;;;;5097076;28;20215;-69
2021/04/18 01:19:32;;;;;;;0.10;0.10;;;;;;;;;;5084858;28;20205;-69
2021/04/18 01:21:59;;;;;;;3.50;3.40;;;;;;;;;;5097602;28;20235;-68
2021/04/18 01:24:25;;;;;;;0.10;0.10;;;;;;;;;;5098160;28;20221;-68
2021/04/18 01:26:51;;;;;;;0.10;0.10;;;;;;;;;;5087927;28;20231;-68
2021/04/18 01:29:17;;;;;;;0.20;0.20;;;;;;;;;;5098521;28;20498;-70
2021/04/18 01:31:43;;;;;;;0.20;0.20;;;;;;;;;;5090676;28;20206;-68
2021/04/18 01:34:10;;;;;;;0.20;0.20;;;;;;;;;;5097052;28;20424;-69
2021/04/18 01:36:36;;;;;;;0.10;0.10;;;;;;;;;;5091442;28;20240;-69
2021/04/18 01:39:03;;;;;;;0.20;0.20;;;;;;;;;;5098279;28;20198;-70
2021/04/18 01:41:29;;;;;;;0.17;0.17;;;;;;;;;;5097572;28;20210;-68
2021/04/18 01:43:55;;;;;;;0.20;0.20;;;;;;;;;;5098320;28;20213;-69
2021/04/18 01:46:21;;;;;;;0.10;0.10;;;;;;;;;;5094153;28;20222;-68
2021/04/18 01:48:46;;;;;;;0.10;0.10;;;;;;;;;;5087974;28;20203;-69
2021/04/18 01:51:12;;;;;;;0.10;0.10;;;;;;;;;;5085069;28;20217;-67
2021/04/18 01:53:38;;;;;;;0.10;0.10;;;;;;;;;;5094628;28;20206;-69
2021/04/18 01:56:06;;;;;;;0.10;0.10;;;;;;;;;;5090798;28;20207;-69
2021/04/18 01:58:32;;;;;;;0.10;0.10;;;;;;;;;;5090496;28;20274;-70
2021/04/18 02:00:58;;;;;;;0.10;0.10;;;;;;;;;;5089115;28;20387;-68
2021/04/18 02:03:24;;;;;;;0.10;0.10;;;;;;;;;;5091848;28;20207;-68
2021/04/18 02:05:50;;;;;;;0.10;0.10;;;;;;;;;;5083926;28;20210;-69
2021/04/18 02:08:15;;;;;;;0.20;0.20;;;;;;;;;;5084126;28;20209;-69
2021/04/18 02:10:41;;;;;;;0.17;0.17;;;;;;;;;;5087208;28;20217;-69
2021/04/18 02:13:08;;;;;;;0.10;0.10;;;;;;;;;;5085756;28;20248;-69
2021/04/18 02:15:33;;;;;;;0.10;0.10;;;;;;;;;;5102785;28;20228;-69
2021/04/18 02:17:59;;;;;;;0.10;0.10;;;;;;;;;;5091184;28;20206;-69
2021/04/18 02:20:25;;;;;;;0.10;0.10;;;;;;;;;;5097040;28;20206;-69
2021/04/18 02:22:51;;;;;;;0.10;0.10;;;;;;;;;;5083412;28;20301;-69
2021/04/18 02:25:17;;;;;;;0.10;0.10;;;;;;;;;;5087149;28;20242;-70
2021/04/18 02:27:42;;;;;;;0.10;0.10;;;;;;;;;;5098425;28;20229;-69
2021/04/18 02:30:10;;;;;;;0.20;0.20;;;;;;;;;;5092708;28;20408;-69
2021/04/18 02:32:35;;;;;;;0.10;0.10;;;;;;;;;;5104153;28;20207;-69
2021/04/18 02:35:02;;;;;;;0.20;0.20;;;;;;;;;;5090282;28;20537;-68
2021/04/18 02:37:27;;;;;;;0.10;0.10;;;;;;;;;;5089267;28;20196;-69
2021/04/18 02:39:53;;;;;;;0.20;0.20;;;;;;;;;;5100230;28;20209;-69
2021/04/18 02:42:19;;;;;;;0.10;0.10;;;;;;;;;;5088599;28;20365;-69
2021/04/18 02:44:45;;;;;;;0.10;0.10;;;;;;;;;;5085447;28;20342;-69
2021/04/18 02:47:11;;;;;;;0.20;0.20;;;;;;;;;;5084011;28;20540;-69
2021/04/18 02:49:37;;;;;;;0.10;0.10;;;;;;;;;;5083677;28;20217;-69
2021/04/18 02:52:03;;;;;;;0.10;0.10;;;;;;;;;;5102685;28;20354;-69
2021/04/18 02:54:28;;;;;;;0.10;0.10;;;;;;;;;;5086069;28;20390;-70
2021/04/18 02:56:54;;;;;;;0.17;0.17;;;;;;;;;;5085924;28;20547;-69
2021/04/18 02:59:20;;;;;;;0.10;0.10;;;;;;;;;;5083823;28;20209;-69
2021/04/18 03:01:46;;;;;;;0.13;0.13;;;;;;;;;;5090088;28;20206;-69
2021/04/18 03:04:12;;;;;;;0.10;0.10;;;;;;;;;;5094466;28;20212;-68
2021/04/18 03:06:38;;;;;;;0.17;0.17;;;;;;;;;;5099425;28;20233;-68
2021/04/18 03:09:04;;;;;;;0.13;0.13;;;;;;;;;;5092811;28;20397;-70
2021/04/18 03:11:30;;;;;;;0.10;0.10;;;;;;;;;;5097073;28;20388;-70
2021/04/18 03:13:55;;;;;;;0.10;0.10;;;;;;;;;;5090623;28;20244;-70
2021/04/18 03:16:21;;;;;;;0.10;0.10;;;;;;;;;;5089648;28;20486;-69
2021/04/18 03:18:47;;;;;;;0.10;0.10;;;;;;;;;;5098701;28;20555;-69
2021/04/18 03:21:14;;;;;;;0.20;0.20;;;;;;;;;;5100702;28;20460;-69
2021/04/18 03:23:39;;;;;;;0.10;0.10;;;;;;;;;;5106954;28;20237;-70
2021/04/18 03:26:05;;;;;;;0.10;0.10;;;;;;;;;;5094530;28;20278;-70
2021/04/18 03:28:31;;;;;;;0.10;0.10;;;;;;;;;;5095491;28;20205;-69
2021/04/18 03:30:57;;;;;;;0.10;0.10;;;;;;;;;;5096273;28;20207;-70
2021/04/18 03:33:22;;;;;;;0.10;0.10;;;;;;;;;;5096651;28;20206;-70
2021/04/18 03:35:48;;;;;;;0.10;0.10;;;;;;;;;;5100500;28;20209;-69
2021/04/18 03:38:15;;;;;;;0.10;0.10;;;;;;;;;;5086899;28;20213;-68
2021/04/18 03:40:41;;;;;;;0.10;0.10;;;;;;;;;;5097589;28;20498;-70
2021/04/18 03:43:06;;;;;;;0.10;0.10;;;;;;;;;;5093729;28;20353;-68
2021/04/18 03:45:32;;;;;;;0.10;0.10;;;;;;;;;;5087921;28;20207;-68
2021/04/18 03:47:58;;;;;;;0.10;0.10;;;;;;;;;;5089151;28;20219;-69
2021/04/18 03:50:24;;;;;;;0.20;0.20;;;;;;;;;;5092365;28;20203;-70
2021/04/18 03:52:50;;;;;;;0.10;0.10;;;;;;;;;;5093112;28;20205;-69
2021/04/18 03:55:16;;;;;;;0.10;0.10;;;;;;;;;;5093364;28;20203;-69
2021/04/18 03:57:42;;;;;;;0.10;0.10;;;;;;;;;;5106670;28;20213;-70
2021/04/18 04:00:09;;;;;;;0.10;0.10;;;;;;;;;;5092821;28;20210;-69
2021/04/18 04:02:35;;;;;;;0.20;0.20;;;;;;;;;;5093944;28;20207;-68
2021/04/18 04:05:01;;;;;;;0.10;0.10;;;;;;;;;;5086227;28;20636;-68
2021/04/18 04:07:27;;;;;;;0.10;0.10;;;;;;;;;;5092808;28;20564;-69
2021/04/18 04:09:52;;;;;;;0.10;0.10;;;;;;;;;;5100616;28;20207;-69
2021/04/18 04:12:19;;;;;;;0.10;0.10;;;;;;;;;;5095221;28;20203;-69
2021/04/18 04:14:45;;;;;;;0.10;0.10;;;;;;;;;;5103072;28;20206;-71
2021/04/18 04:17:10;;;;;;;0.10;0.10;;;;;;;;;;5086075;28;20226;-70
2021/04/18 04:19:36;;;;;;;0.10;0.10;;;;;;;;;;5085996;28;20214;-71
2021/04/18 04:22:02;;;;;;;0.10;0.10;;;;;;;;;;5106055;28;20233;-68
2021/04/18 04:24:28;;;;;;;0.10;0.10;;;;;;;;;;5105765;28;20282;-68
2021/04/18 04:26:54;;;;;;;0.10;0.10;;;;;;;;;;5091742;28;20315;-68
2021/04/18 04:29:20;;;;;;;0.10;0.10;;;;;;;;;;5102556;28;20223;-69
2021/04/18 04:31:46;;;;;;;0.20;0.20;;;;;;;;;;5095733;28;20484;-70
2021/04/18 04:34:12;;;;;;;0.10;0.10;;;;;;;;;;5104452;28;20217;-69
2021/04/18 04:36:37;;;;;;;0.20;0.20;;;;;;;;;;5101582;28;20213;-70
2021/04/18 04:39:05;;;;;;;0.10;0.10;;;;;;;;;;5098321;28;20410;-69
2021/04/18 04:41:31;;;;;;;0.10;0.10;;;;;;;;;;5099398;28;20516;-70
2021/04/18 04:43:57;;;;;;;0.10;0.10;;;;;;;;;;5094311;28;20213;-69
2021/04/18 04:46:23;;;;;;;0.10;0.10;;;;;;;;;;5092825;28;20225;-69
2021/04/18 04:48:49;;;;;;;0.10;0.10;;;;;;;;;;5091339;28;20206;-70
2021/04/18 04:51:15;;;;;;;0.20;0.20;;;;;;;;;;5098261;28;20199;-70
2021/04/18 04:53:41;;;;;;;0.10;0.10;;;;;;;;;;5087734;28;20302;-69
2021/04/18 04:56:06;;;;;;;0.10;0.10;;;;;;;;;;5086815;28;20213;-68
2021/04/18 04:58:32;;;;;;;0.10;0.10;;;;;;;;;;5086221;28;20210;-69
2021/04/18 05:00:58;;;;;;;0.10;0.10;;;;;;;;;;5105554;28;20206;-68
2021/04/18 05:03:27;;;;;;;0.13;0.13;;;;;;;;;;5105354;28;20492;-68
2021/04/18 05:05:53;;;;;;;0.10;0.10;;;;;;;;;;5097820;28;20233;-69
2021/04/18 05:08:18;;;;;;;0.10;0.10;;;;;;;;;;5084874;28;20544;-68
2021/04/18 05:10:44;;;;;;;0.20;0.20;;;;;;;;;;5092361;28;20233;-68
2021/04/18 05:13:10;;;;;;;0.20;0.20;;;;;;;;;;5096754;28;20314;-69
2021/04/18 05:15:36;;;;;;;0.10;0.10;;;;;;;;;;5102184;28;20255;-69
2021/04/18 05:18:03;;;;;;;0.33;0.33;;;;;;;;;;5102765;28;20225;-69
2021/04/18 05:20:29;;;;;;;0.10;0.10;;;;;;;;;;5084974;28;20202;-69
2021/04/18 05:22:55;;;;;;;0.20;0.20;;;;;;;;;;5084471;28;20407;-69
2021/04/18 05:25:21;;;;;;;0.10;0.10;;;;;;;;;;5084897;28;20230;-69
2021/04/18 05:27:46;;;;;;;0.13;0.13;;;;;;;;;;5087760;28;20268;-70
2021/04/18 05:30:13;;;;;;;0.13;0.13;;;;;;;;;;5101548;28;20201;-69
2021/04/18 05:32:38;;;;;;;0.20;0.20;;;;;;;;;;5104635;28;20209;-68
2021/04/18 05:35:05;;;;;;;0.20;0.20;;;;;;;;;;5090747;28;20209;-69
2021/04/18 05:37:31;;;;;;;0.10;0.10;;;;;;;;;;5096857;28;20268;-68
2021/04/18 05:39:57;;;;;;;0.10;0.10;;;;;;;;;;5097582;28;20400;-69
2021/04/18 05:42:22;;;;;;;0.10;0.10;;;;;;;;;;5091651;28;20199;-68
2021/04/18 05:44:48;;;;;;;0.20;0.20;;;;;;;;;;5097530;28;20218;-69
2021/04/18 05:47:14;;;;;;;0.10;0.10;;;;;;;;;;5099826;28;20222;-69
2021/04/18 05:49:40;;;;;;;0.10;0.10;;;;;;;;;;5085162;28;20256;-68
2021/04/18 05:52:06;;;;;;;0.20;0.20;;;;;;;;;;5100465;28;20213;-70
2021/04/18 05:54:33;;;;;;;0.20;0.20;;;;;;;;;;5091653;28;20198;-69
2021/04/18 05:56:58;;;;;;;0.10;0.10;;;;;;;;;;5104435;28;20212;-69
2021/04/18 05:59:24;;;;;;;0.10;0.10;;;;;;;;;;5096857;28;20202;-68
2021/04/18 06:01:50;;;;;;;0.20;0.20;;;;;;;;;;5092357;28;20512;-69
2021/04/18 06:04:16;;;;;;;0.20;0.20;;;;;;;;;;5091362;28;20275;-69
2021/04/18 06:06:41;;;;;;;0.10;0.10;;;;;;;;;;5090371;28;20222;-68
2021/04/18 06:09:07;;;;;;;0.20;0.20;;;;;;;;;;5091137;28;20202;-68
2021/04/18 06:11:34;;;;;;;0.10;0.10;;;;;;;;;;5088361;28;20208;-68
2021/04/18 06:13:59;;;;;;;0.20;0.20;;;;;;;;;;5084055;28;20217;-68
2021/04/18 06:16:25;;;;;;;4.17;3.93;;;;;;;;;;5097886;28;20199;-68
2021/04/18 06:18:51;;;;;;;0.20;0.20;;;;;;;;;;5091640;28;20269;-70
2021/04/18 06:21:17;;;;;;;0.20;0.20;;;;;;;;;;5095579;28;20256;-68
2021/04/18 06:23:43;;;;;;;0.20;0.20;;;;;;;;;;5083733;28;20238;-69
2021/04/18 06:26:09;;;;;;;0.10;0.10;;;;;;;;;;5084839;28;20217;-68
2021/04/18 06:28:35;;;;;;;0.20;0.20;;;;;;;;;;5103249;28;20269;-69
2021/04/18 06:31:01;;;;;;;0.17;0.17;;;;;;;;;;5101402;28;20213;-69
2021/04/18 06:33:27;;;;;;;0.20;0.20;;;;;;;;;;5104369;28;20269;-69
2021/04/18 06:35:53;;;;;;;0.10;0.10;;;;;;;;;;5094622;28;20214;-69
2021/04/18 06:38:18;;;;;;;0.20;0.20;;;;;;;;;;5085055;28;20274;-69
2021/04/18 06:40:44;;;;;;;0.10;0.10;;;;;;;;;;5103967;28;20202;-69
2021/04/18 06:43:11;;;;;;;0.10;0.10;;;;;;;;;;5090472;28;20497;-69
2021/04/18 06:45:38;;;;;;;0.10;0.10;;;;;;;;;;5088835;28;20243;-69
2021/04/18 06:48:04;;;;;;;0.10;0.10;;;;;;;;;;5097141;28;20533;-70
2021/04/18 06:50:30;;;;;;;0.10;0.10;;;;;;;;;;5083624;28;20207;-70
2021/04/18 06:52:56;;;;;;;0.10;0.10;;;;;;;;;;5083677;28;20217;-70
2021/04/18 06:55:22;;;;;;;0.10;0.10;;;;;;;;;;5097826;28;20273;-70
2021/04/18 06:57:48;;;;;;;0.10;0.10;;;;;;;;;;5083559;28;20206;-69
2021/04/18 07:00:14;;;;;;;0.10;0.10;;;;;;;;;;5097414;28;20230;-69
2021/04/18 07:02:41;;;;;;;0.20;0.20;;;;;;;;;;5092954;28;20214;-69
2021/04/18 07:05:08;;;;;;;0.10;0.10;;;;;;;;;;5083632;28;20245;-70
2021/04/18 07:07:35;;;;;;;0.20;0.20;;;;;;;;;;5096597;28;20237;-70
2021/04/18 07:10:01;;;;;;;0.20;0.20;;;;;;;;;;5095847;28;20195;-70
2021/04/18 07:12:28;;;;;;;0.20;0.20;;;;;;;;;;5083883;28;20255;-69
2021/04/18 07:14:53;;;;;;;0.10;0.10;;;;;;;;;;5087729;28;20256;-71
2021/04/18 07:17:19;;;;;;;0.10;0.10;;;;;;;;;;5093318;28;20210;-69
2021/04/18 07:19:47;;;;;;;0.20;0.20;;;;;;;;;;5097568;28;20198;-69
2021/04/18 07:22:15;;;;;;;0.10;0.10;;;;;;;;;;5103836;28;20290;-68
2021/04/18 07:24:47;;;;;;;0.20;0.20;;;;;;;;;;5100414;28;20221;-70
2021/04/18 07:27:13;;;;;;;0.10;0.10;;;;;;;;;;5083238;28;20226;-69
2021/04/18 07:29:39;;;;;;;0.20;0.20;;;;;;;;;;5097411;28;20275;-69
2021/04/18 07:32:16;;;;;;;0.20;0.20;;;;;;;;;;5083603;28;20286;-69
2021/04/18 07:34:42;;;;;;;0.10;0.10;;;;;;;;;;5096770;28;20209;-69
2021/04/18 07:37:10;;;;;;;0.20;0.20;;;;;;;;;;5089054;28;20210;-68
2021/04/18 07:39:43;;;;;;;0.17;0.17;;;;;;;;;;5098177;28;20221;-69
2021/04/18 07:42:09;;;;;;;0.10;0.10;;;;;;;;;;5084184;28;20217;-70
2021/04/18 07:44:35;;;;;;;0.13;0.13;;;;;;;;;;5089165;28;20206;-70
2021/04/18 07:47:01;;;;;;;0.20;0.20;;;;;;;;;;5091455;28;20231;-70
2021/04/18 07:49:27;;;;;;;0.13;0.13;;;;;;;;;;5089565;28;20472;-69
2021/04/18 07:51:53;;;;;;;0.30;0.30;;;;;;;;;;5090477;28;20206;-69
2021/04/18 07:54:19;;;;;;;0.20;0.20;;;;;;;;;;5089956;28;20248;-70
2021/04/18 07:56:46;;;;;;;0.20;0.20;;;;;;;;;;5092413;28;20206;-69
2021/04/18 07:59:13;;;;;;;0.20;0.20;;;;;;;;;;5095701;28;20201;-70
2021/04/18 08:01:39;;;;;;;0.20;0.20;;;;;;;;;;5088861;28;20209;-69
2021/04/18 08:04:06;;;;;;;0.10;0.10;;;;;;;;;;5093893;28;20513;-69
2021/04/18 08:06:32;;;;;;;0.20;0.20;;;;;;;;;;5087066;28;20240;-69
2021/04/18 08:08:57;;;;;;;0.20;0.20;;;;;;;;;;5086267;28;20282;-69
2021/04/18 08:11:24;;;;;;;0.20;0.20;;;;;;;;;;5093972;28;20211;-70
2021/04/18 08:13:51;;;;;;;0.20;0.20;;;;;;;;;;5090857;28;20345;-70
2021/04/18 08:16:25;;;;;;;0.20;0.20;;;;;;;;;;5085998;28;20215;-72
2021/04/18 08:18:51;;;;;;;0.10;0.10;;;;;;;;;;5094449;28;20194;-70
2021/04/18 08:21:24;;;;;;;0.10;0.10;;;;;;;;;;5095829;28;20244;-72
2021/04/18 08:23:50;;;;;;;0.20;0.20;;;;;;;;;;5090491;28;20241;-70
2021/04/18 08:26:17;;;;;;;0.17;0.17;;;;;;;;;;5095971;28;20211;-69
2021/04/18 08:29:03;;;;;;;0.20;0.20;;;;;;;;;;5091253;28;20207;-70
2021/04/18 08:31:30;;;;;;;0.20;0.20;;;;;;;;;;5092801;28;20209;-68
2021/04/18 08:33:57;;;;;;;0.20;0.20;;;;;;;;;;5089268;28;20234;-69
2021/04/18 08:36:23;;;;;;;0.20;0.20;;;;;;;;;;5094734;28;20210;-70
2021/04/18 08:38:50;;;;;;;0.20;0.20;;;;;;;;;;5094602;28;20300;-70
2021/04/18 08:41:16;;;;;;;0.20;0.20;;;;;;;;;;5091630;28;20224;-69
2021/04/18 08:43:42;;;;;;;0.20;0.20;;;;;;;;;;5095682;28;20281;-69
2021/04/18 08:46:08;;;;;;;0.20;0.20;;;;;;;;;;5088320;28;20206;-71
2021/04/18 08:48:35;;;;;;;0.10;0.10;;;;;;;;;;5088980;28;20450;-69
2021/04/18 08:51:01;;;;;;;0.10;0.10;;;;;;;;;;5087761;28;20206;-70
2021/04/18 08:53:28;;;;;;;0.20;0.20;;;;;;;;;;5091766;28;20509;-69
2021/04/18 08:55:55;;;;;;;0.20;0.20;;;;;;;;;;5086372;28;20202;-70
2021/04/18 08:58:35;;;;;;;0.20;0.20;;;;;;;;;;5090733;28;20200;-69
2021/04/18 09:01:05;;;;;;;0.20;0.20;;;;;;;;;;5095223;28;20419;-70
2021/04/18 09:03:30;;;;;;;0.20;0.20;;;;;;;;;;5091373;28;20226;-69
2021/04/18 09:06:07;;;;;;;0.10;0.10;;;;;;;;;;5096451;28;20494;-70
2021/04/18 09:08:33;;;;;;;0.17;0.17;;;;;;;;;;5096671;28;20214;-70
2021/04/18 09:11:03;;;;;;;0.10;0.10;;;;;;;;;;5096224;28;20206;-73
2021/04/18 09:13:29;;;;;;;0.20;0.20;;;;;;;;;;5091189;28;20466;-71
2021/04/18 09:15:54;;;;;;;0.20;0.20;;;;;;;;;;5093055;28;20222;-71
2021/04/18 09:18:23;;;;;;;0.20;0.20;;;;;;;;;;5085994;28;20210;-72
2021/04/18 09:21:04;;;;;;;0.20;0.20;;;;;;;;;;5097173;28;20210;-73
2021/04/18 09:23:31;;;;;;;0.20;0.20;;;;;;;;;;5090654;28;20257;-72
2021/04/18 09:26:09;;;;;;;0.10;0.10;;;;;;;;;;5088440;28;20196;-72
2021/04/18 09:28:35;;;;;;;0.10;0.10;;;;;;;;;;5089857;28;20289;-74
2021/04/18 09:31:06;;;;;;;0.20;0.20;;;;;;;;;;5092900;28;20202;-73
2021/04/18 09:33:32;;;;;;;0.20;0.20;;;;;;;;;;5094331;28;20213;-73
2021/04/18 09:35:58;;;;;;;0.30;0.30;;;;;;;;;;5090014;28;20389;-73
2021/04/18 09:38:24;;;;;;;0.10;0.10;;;;;;;;;;5087438;28;20282;-73
2021/04/18 09:40:51;;;;;;;0.20;0.20;;;;;;;;;;5085907;28;20308;-70
2021/04/18 09:43:22;;;;;;;0.10;0.10;;;;;;;;;;5087846;28;20372;-71
2021/04/18 09:45:58;;;;;;;0.10;0.10;;;;;;;;;;5089336;28;20199;-73
2021/04/18 09:48:24;;;;;;;0.20;0.20;;;;;;;;;;5091761;28;20209;-70
2021/04/18 09:50:58;;;;;;;0.10;0.10;;;;;;;;;;5092176;28;20404;-70
2021/04/18 09:53:25;;;;;;;0.20;0.20;;;;;;;;;;5091929;28;20257;-70
2021/04/18 09:55:52;;;;;;;0.10;0.10;;;;;;;;;;5100326;28;20214;-70
2021/04/18 09:58:25;;;;;;;0.10;0.10;;;;;;;;;;5087929;28;20498;-70
2021/04/18 10:00:50;;;;;;;0.10;0.10;;;;;;;;;;5091444;28;20199;-71
2021/04/18 10:03:16;;;;;;;0.10;0.10;;;;;;;;;;5089175;28;20213;-71
2021/04/18 10:05:58;;;;;;;0.10;0.10;;;;;;;;;;5089962;28;20206;-70
2021/04/18 10:08:26;;;;;;;0.10;0.10;;;;;;;;;;5090069;28;20303;-71
2021/04/18 10:10:54;;;;;;;0.10;0.10;;;;;;;;;;5088398;28;20205;-71
2021/04/18 10:13:37;;;;;;;0.17;0.17;;;;;;;;;;5087740;28;20271;-70
2021/04/18 10:16:04;;;;;;;0.10;0.10;;;;;;;;;;5088333;28;20522;-70
2021/04/18 10:18:30;;;;;;;0.10;0.10;;;;;;;;;;5093942;28;20523;-70
2021/04/18 10:21:11;;;;;;;0.10;0.10;;;;;;;;;;5086071;28;20212;-70
2021/04/18 10:23:36;;;;;;;0.10;0.10;;;;;;;;;;5093072;28;20298;-74
2021/04/18 10:26:03;;;;;;;0.10;0.10;;;;;;;;;;5088597;28;20199;-70
2021/04/18 10:28:29;;;;;;;0.10;0.10;;;;;;;;;;5090710;28;20645;-69
2021/04/18 10:30:55;;;;;;;0.10;0.10;;;;;;;;;;5090890;28;20272;-70
2021/04/18 10:33:20;;;;;;;0.10;0.10;;;;;;;;;;5087498;28;20492;-70
2021/04/18 10:35:46;;;;;;;0.10;0.10;;;;;;;;;;5088378;28;20203;-68
2021/04/18 10:38:12;;;;;;;0.10;0.10;;;;;;;;;;5088487;28;20412;-68
2021/04/18 10:40:38;;;;;;;0.10;0.10;;;;;;;;;;5087173;28;20213;-68
2021/04/18 10:43:06;;;;;;;0.10;0.10;;;;;;;;;;5089224;28;20505;-68
2021/04/18 10:45:32;;;;;;;0.10;0.10;;;;;;;;;;5091451;28;20278;-68
2021/04/18 10:47:57;;;;;;;0.10;0.10;;;;;;;;;;5091202;28;20297;-72
2021/04/18 10:50:23;;;;;;;0.10;0.10;;;;;;;;;;5093388;28;20605;-68
2021/04/18 10:52:49;;;;;;;0.10;0.10;;;;;;;;;;5091982;28;20205;-65
2021/04/18 10:55:15;;;;;;;0.10;0.10;;;;;;;;;;5089447;28;20262;-68
2021/04/18 10:57:40;;;;;;;0.00;0.00;;;;;;;;;;5088745;28;20241;-70
2021/04/18 11:00:08;;;;;;;0.10;0.10;;;;;;;;;;5087438;28;20211;-68
2021/04/18 11:02:34;;;;;;;0.10;0.10;;;;;;;;;;5085010;28;20209;-68
2021/04/18 11:05:00;;;;;;;0.10;0.10;;;;;;;;;;5092400;28;20223;-71
2021/04/18 11:07:25;;;;;;;0.10;0.10;;;;;;;;;;5096963;28;20521;-70
2021/04/18 11:09:51;;;;;;;0.10;0.10;;;;;;;;;;5084134;28;20204;-74
2021/04/18 11:12:18;;;;;;;0.10;0.10;;;;;;;;;;5085107;28;20236;-71
2021/04/18 11:14:44;;;;;;;0.10;0.10;;;;;;;;;;5086620;28;20204;-72
2021/04/18 11:17:11;;;;;;;0.10;0.10;;;;;;;;;;5086984;28;20498;-71
2021/04/18 11:19:39;;;;;;;0.10;0.10;;;;;;;;;;5093945;28;20203;-72
2021/04/18 11:22:05;;;;;;;0.10;0.10;;;;;;;;;;5085410;28;20929;-72
2021/04/18 11:24:31;;;;;;;0.10;0.10;;;;;;;;;;5089591;28;20218;-72
2021/04/18 11:26:57;;;;;;;0.10;0.10;;;;;;;;;;5087944;28;20483;-71
2021/04/18 11:29:23;;;;;;;0.10;0.10;;;;;;;;;;5090990;28;20209;-71
2021/04/18 11:31:50;;;;;;;0.10;0.10;;;;;;;;;;5091777;28;20212;-74
2021/04/18 11:34:16;;;;;;;0.10;0.10;;;;;;;;;;5091328;28;20210;-69
2021/04/18 11:36:44;;;;;;;0.10;0.10;;;;;;;;;;5089528;28;20215;-71
2021/04/18 11:39:10;;;;;;;0.10;0.10;;;;;;;;;;5093071;28;20210;-71
2021/04/18 11:41:36;;;;;;;0.20;0.20;;;;;;;;;;5097438;28;20207;-69
2021/04/18 11:44:02;;;;;;;0.10;0.10;;;;;;;;;;5095978;28;20500;-71
2021/04/18 11:46:27;;;;;;;0.10;0.10;;;;;;;;;;5091320;28;20206;-69
2021/04/18 11:48:53;;;;;;;0.10;0.10;;;;;;;;;;5089516;28;20284;-72
2021/04/18 11:51:20;;;;;;;0.10;0.10;;;;;;;;;;5099216;28;20264;-71
2021/04/18 11:53:46;;;;;;;0.10;0.10;;;;;;;;;;5097199;28;20496;-70
2021/04/18 11:56:11;;;;;;;0.10;0.10;;;;;;;;;;5093564;28;20231;-70
2021/04/18 11:58:37;;;;;;;0.10;0.10;;;;;;;;;;5094768;28;20379;-70
2021/04/18 12:01:03;;;;;;;0.10;0.10;;;;;;;;;;5098619;28;20254;-70
2021/04/18 12:03:29;;;;;;;0.10;0.10;;;;;;;;;;5093102;28;20207;-70
2021/04/18 12:05:56;;;;;;;0.10;0.10;;;;;;;;;;5091461;28;20439;-73
2021/04/18 12:08:23;;;;;;;0.10;0.10;;;;;;;;;;5089561;28;20221;-70
2021/04/18 12:10:49;;;;;;;0.10;0.10;;;;;;;;;;5096619;28;20407;-69
2021/04/18 12:13:15;;;;;;;0.10;0.10;;;;;;;;;;5094906;28;20206;-70
2021/04/18 12:15:44;;;;;;;0.10;0.10;;;;;;;;;;5091320;28;20286;-71
2021/04/18 12:18:12;;;;;;;0.10;0.10;;;;;;;;;;5093112;28;20213;-72
2021/04/18 12:20:38;;;;;;;0.10;0.10;;;;;;;;;;5091659;28;20210;-72
2021/04/18 12:23:04;;;;;;;0.10;0.10;;;;;;;;;;5092497;28;20232;-70
2021/04/18 12:25:30;;;;;;;0.10;0.10;;;;;;;;;;5089631;28;20403;-75
2021/04/18 12:27:56;;;;;;;0.30;0.30;;;;;;;;;;5089584;28;20259;-68
2021/04/18 12:30:22;;;;;;;0.00;0.00;;;;;;;;;;5094301;28;20218;-71
2021/04/18 12:32:48;;;;;;;0.10;0.10;;;;;;;;;;5090279;28;20204;-74
2021/04/18 12:35:14;;;;;;;0.00;0.00;;;;;;;;;;5093150;28;20221;-73
2021/04/18 12:37:40;;;;;;;0.10;0.10;;;;;;;;;;5095827;28;20237;-74
2021/04/18 12:40:07;;;;;;;0.10;0.10;;;;;;;;;;5091389;28;20206;-73
2021/04/18 12:42:35;;;;;;;0.10;0.10;;;;;;;;;;5090851;28;20221;-72
2021/04/18 12:45:01;;;;;;;0.10;0.10;;;;;;;;;;5092185;28;20250;-73
2021/04/18 12:47:27;;;;;;;0.10;0.10;;;;;;;;;;5093518;28;20221;-73
2021/04/18 12:49:55;;;;;;;0.10;0.10;;;;;;;;;;5094731;28;20209;-73
2021/04/18 12:52:20;;;;;;;0.00;0.00;;;;;;;;;;5092296;28;20212;-75
2021/04/18 12:54:46;;;;;;;0.00;0.00;;;;;;;;;;5093963;28;20209;-73
2021/04/18 12:57:16;;;;;;;0.10;0.10;;;;;;;;;;5100820;28;20202;-74
2021/04/18 12:59:43;;;;;;;0.10;0.10;;;;;;;;;;5087760;28;20210;-72
2021/04/18 13:02:09;;;;;;;0.10;0.10;;;;;;;;;;5093298;28;20211;-74
2021/04/18 13:04:35;;;;;;;0.10;0.10;;;;;;;;;;5096155;28;20202;-71
2021/04/18 13:07:01;;;;;;;0.10;0.10;;;;;;;;;;5096190;28;20514;-72
2021/04/18 13:09:27;;;;;;;0.07;0.07;;;;;;;;;;5091317;28;20206;-74
2021/04/18 13:11:53;;;;;;;0.10;0.10;;;;;;;;;;5090910;28;20205;-75
2021/04/18 13:14:18;;;;;;;0.10;0.10;;;;;;;;;;5090720;28;20206;-73
2021/04/18 13:16:47;;;;;;;0.10;0.10;;;;;;;;;;5089612;28;20206;-73
2021/04/18 13:19:13;;;;;;;0.10;0.10;;;;;;;;;;5091632;28;20201;-72
2021/04/18 13:21:39;;;;;;;0.10;0.10;;;;;;;;;;5090445;28;20236;-72
2021/04/18 13:24:05;;;;;;;0.10;0.10;;;;;;;;;;5095427;28;20236;-73
2021/04/18 13:26:31;;;;;;;0.10;0.10;;;;;;;;;;5094028;28;20275;-73
2021/04/18 13:28:56;;;;;;;0.10;0.10;;;;;;;;;;5092251;28;20451;-73
2021/04/18 13:31:23;;;;;;;0.10;0.10;;;;;;;;;;5100213;28;20207;-70
2021/04/18 13:33:50;;;;;;;0.10;0.10;;;;;;;;;;5094998;28;20211;-73
2021/04/18 13:36:16;;;;;;;1.53;1.43;;;;;;;;;;5092882;28;20210;-69
2021/04/18 13:38:42;;;;;;;0.10;0.10;;;;;;;;;;5094969;28;20252;-74
2021/04/18 13:41:08;;;;;;;0.10;0.10;;;;;;;;;;5093754;28;20367;-74
2021/04/18 13:43:33;;;;;;;0.10;0.10;;;;;;;;;;5093207;28;20213;-78
2021/04/18 13:45:59;;;;;;;0.10;0.10;;;;;;;;;;5094207;28;20198;-74
2021/04/18 13:48:25;;;;;;;0.10;0.10;;;;;;;;;;5086218;28;20227;-73
2021/04/18 13:50:52;;;;;;;0.00;0.00;;;;;;;;;;5088449;28;20249;-73
2021/04/18 13:53:19;;;;;;;0.10;0.10;;;;;;;;;;5097593;28;20218;-76
2021/04/18 13:55:45;;;;;;;0.10;0.10;;;;;;;;;;5089996;28;20442;-72
2021/04/18 13:58:11;;;;;;;0.10;0.10;;;;;;;;;;5090689;28;20225;-74
2021/04/18 14:00:36;;;;;;;0.10;0.10;;;;;;;;;;5098837;28;20204;-73
2021/04/18 14:03:02;;;;;;;0.43;0.43;;;;;;;;;;5086181;28;20204;-73
2021/04/18 14:05:29;;;;;;;4.73;4.33;;;;;;;;;;5089783;28;20203;-71
2021/04/18 14:07:55;;;;;;;0.10;0.10;;;;;;;;;;5089846;28;20417;-71
2021/04/18 14:10:22;;;;;;;0.20;0.20;;;;;;;;;;5090568;28;20521;-75
2021/04/18 14:12:48;;;;;;;0.10;0.10;;;;;;;;;;5089272;28;20199;-74
2021/04/18 14:15:14;;;;;;;0.10;0.10;;;;;;;;;;5091563;28;20261;-73
2021/04/18 14:17:40;;;;;;;0.10;0.10;;;;;;;;;;5092953;28;20556;-74
2021/04/18 14:20:06;;;;;;;0.00;0.00;;;;;;;;;;5089920;28;20207;-72
2021/04/18 14:22:33;;;;;;;0.10;0.10;;;;;;;;;;5090383;28;20224;-74
2021/04/18 14:24:59;;;;;;;0.10;0.10;;;;;;;;;;5084962;28;20519;-73
2021/04/18 14:27:25;;;;;;;0.10;0.10;;;;;;;;;;5090493;28;20233;-70
2021/04/18 14:29:51;;;;;;;0.10;0.10;;;;;;;;;;5090306;28;20199;-73
2021/04/18 14:32:16;;;;;;;0.10;0.10;;;;;;;;;;5087378;28;20205;-73
2021/04/18 14:34:45;;;;;;;0.10;0.10;;;;;;;;;;5087028;28;20262;-73
2021/04/18 14:37:11;;;;;;;0.00;0.00;;;;;;;;;;5088501;28;20243;-72
2021/04/18 14:39:37;;;;;;;0.10;0.10;;;;;;;;;;5093293;28;20203;-73